sensor_id;sensor_type;location;lat;lon;timestamp;temperature;humidity
47336;DHT22;33068;51.990;5.926;2023-01-23T00:01:32;2.00;99.90
47336;DHT22;33068;51.990;5.926;2023-01-23T00:03:59;2.00;99.90
47336;DHT22;33068;51.990;5.926;2023-01-23T00:06:27;1.90;99.90
47336;DHT22;33068;51.990;5.926;2023-01-23T00:08:55;1.90;99.90
47336;DHT22;33068;51.990;5.926;2023-01-23T00:11:25;1.90;99.90
47336;DHT22;33068;51.990;5.926;2023-01-23T00:13:53;1.90;99.90
47336;DHT22;33068;51.990;5.926;2023-01-23T00:16:23;1.90;99.90
47336;DHT22;33068;51.990;5.926;2023-01-23T00:18:51;1.90;99.90
47336;DHT22;33068;51.990;5.926;2023-01-23T00:21:20;1.90;99.90
47336;DHT22;33068;51.990;5.926;2023-01-23T00:23:49;2.10;99.90
47336;DHT22;33068;51.990;5.926;2023-01-23T00:26:18;1.80;99.90
47336;DHT22;33068;51.990;5.926;2023-01-23T00:28:46;1.90;99.90
47336;DHT22;33068;51.990;5.926;2023-01-23T00:31:16;1.90;99.90
47336;DHT22;33068;51.990;5.926;2023-01-23T00:33:45;1.90;99.90
47336;DHT22;33068;51.990;5.926;2023-01-23T00:36:13;1.90;99.90
47336;DHT22;33068;51.990;5.926;2023-01-23T00:38:41;1.90;99.90
47336;DHT22;33068;51.990;5.926;2023-01-23T00:41:10;1.80;99.90
47336;DHT22;33068;51.990;5.926;2023-01-23T00:43:37;2.20;99.90
47336;DHT22;33068;51.990;5.926;2023-01-23T00:46:13;1.80;99.90
47336;DHT22;33068;51.990;5.926;2023-01-23T00:49:35;1.80;99.90
47336;DHT22;33068;51.990;5.926;2023-01-23T00:52:15;1.80;99.90
47336;DHT22;33068;51.990;5.926;2023-01-23T00:54:46;1.80;99.90
47336;DHT22;33068;51.990;5.926;2023-01-23T00:57:34;1.80;99.90
47336;DHT22;33068;51.990;5.926;2023-01-23T01:00:11;1.80;99.90
47336;DHT22;33068;51.990;5.926;2023-01-23T01:02:52;1.80;99.90
47336;DHT22;33068;51.990;5.926;2023-01-23T01:05:53;1.90;99.90
47336;DHT22;33068;51.990;5.926;2023-01-23T01:08:41;1.80;99.90
47336;DHT22;33068;51.990;5.926;2023-01-23T01:11:14;1.80;99.90
47336;DHT22;33068;51.990;5.926;2023-01-23T01:13:52;1.80;99.90
47336;DHT22;33068;51.990;5.926;2023-01-23T01:16:36;1.80;99.90
47336;DHT22;33068;51.990;5.926;2023-01-23T01:19:34;1.70;99.90
47336;DHT22;33068;51.990;5.926;2023-01-23T01:22:13;1.80;99.90
47336;DHT22;33068;51.990;5.926;2023-01-23T01:24:53;1.80;99.90
47336;DHT22;33068;51.990;5.926;2023-01-23T01:27:48;1.80;99.90
47336;DHT22;33068;51.990;5.926;2023-01-23T01:30:32;1.80;99.90
47336;DHT22;33068;51.990;5.926;2023-01-23T01:33:19;1.80;99.90
47336;DHT22;33068;51.990;5.926;2023-01-23T01:36:14;1.80;99.90
47336;DHT22;33068;51.990;5.926;2023-01-23T01:42:05;1.90;99.90
47336;DHT22;33068;51.990;5.926;2023-01-23T01:45:03;1.90;99.90
47336;DHT22;33068;51.990;5.926;2023-01-23T01:47:33;1.80;99.90
47336;DHT22;33068;51.990;5.926;2023-01-23T01:50:36;1.90;99.90
47336;DHT22;33068;51.990;5.926;2023-01-23T01:53:11;1.90;99.90
47336;DHT22;33068;51.990;5.926;2023-01-23T01:55:44;1.90;99.90
47336;DHT22;33068;51.990;5.926;2023-01-23T02:01:23;1.80;99.90
47336;DHT22;33068;51.990;5.926;2023-01-23T02:04:01;1.80;99.90
47336;DHT22;33068;51.990;5.926;2023-01-23T02:06:43;1.90;99.90
47336;DHT22;33068;51.990;5.926;2023-01-23T02:09:23;1.80;99.90
47336;DHT22;33068;51.990;5.926;2023-01-23T02:11:58;1.90;99.90
47336;DHT22;33068;51.990;5.926;2023-01-23T02:14:31;1.80;99.90
47336;DHT22;33068;51.990;5.926;2023-01-23T02:17:10;2.00;99.90
47336;DHT22;33068;51.990;5.926;2023-01-23T02:19:48;1.50;99.90
47336;DHT22;33068;51.990;5.926;2023-01-23T02:22:26;1.80;99.90
47336;DHT22;33068;51.990;5.926;2023-01-23T02:25:10;1.80;99.90
47336;DHT22;33068;51.990;5.926;2023-01-23T02:27:50;1.70;99.90
47336;DHT22;33068;51.990;5.926;2023-01-23T02:30:25;1.60;99.90
47336;DHT22;33068;51.990;5.926;2023-01-23T02:33:09;1.70;99.90
47336;DHT22;33068;51.990;5.926;2023-01-23T02:35:49;1.40;99.90
47336;DHT22;33068;51.990;5.926;2023-01-23T02:38:33;1.70;99.90
47336;DHT22;33068;51.990;5.926;2023-01-23T02:47:51;1.80;99.90
47336;DHT22;33068;51.990;5.926;2023-01-23T02:50:22;1.90;99.90
47336;DHT22;33068;51.990;5.926;2023-01-23T02:53:16;1.90;99.90
47336;DHT22;33068;51.990;5.926;2023-01-23T02:56:06;1.90;99.90
47336;DHT22;33068;51.990;5.926;2023-01-23T02:59:27;1.80;99.90
47336;DHT22;33068;51.990;5.926;2023-01-23T03:02:52;2.00;99.90
47336;DHT22;33068;51.990;5.926;2023-01-23T03:05:45;1.80;99.90
47336;DHT22;33068;51.990;5.926;2023-01-23T03:08:47;1.90;99.90
47336;DHT22;33068;51.990;5.926;2023-01-23T03:11:23;2.00;99.90
47336;DHT22;33068;51.990;5.926;2023-01-23T03:17:16;2.00;99.90
47336;DHT22;33068;51.990;5.926;2023-01-23T03:19:48;2.00;99.90
47336;DHT22;33068;51.990;5.926;2023-01-23T03:22:18;2.00;99.90
47336;DHT22;33068;51.990;5.926;2023-01-23T03:24:45;1.90;99.90
47336;DHT22;33068;51.990;5.926;2023-01-23T03:27:21;2.00;99.90
47336;DHT22;33068;51.990;5.926;2023-01-23T03:30:11;2.00;99.90
47336;DHT22;33068;51.990;5.926;2023-01-23T03:35:51;2.00;99.90
47336;DHT22;33068;51.990;5.926;2023-01-23T03:39:00;1.60;99.90
47336;DHT22;33068;51.990;5.926;2023-01-23T03:44:59;1.90;99.90
47336;DHT22;33068;51.990;5.926;2023-01-23T03:47:41;2.00;99.90
47336;DHT22;33068;51.990;5.926;2023-01-23T03:50:35;2.00;99.90
47336;DHT22;33068;51.990;5.926;2023-01-23T03:53:05;2.00;99.90
47336;DHT22;33068;51.990;5.926;2023-01-23T03:55:48;2.10;99.90
47336;DHT22;33068;51.990;5.926;2023-01-23T03:58:43;2.00;99.90
47336;DHT22;33068;51.990;5.926;2023-01-23T04:01:32;2.10;99.90
47336;DHT22;33068;51.990;5.926;2023-01-23T04:04:09;2.00;99.90
47336;DHT22;33068;51.990;5.926;2023-01-23T04:09:51;2.00;99.90
47336;DHT22;33068;51.990;5.926;2023-01-23T04:12:19;2.00;99.90
47336;DHT22;33068;51.990;5.926;2023-01-23T04:14:47;2.00;99.90
47336;DHT22;33068;51.990;5.926;2023-01-23T04:17:15;2.00;99.90
47336;DHT22;33068;51.990;5.926;2023-01-23T04:19:42;2.20;99.90
47336;DHT22;33068;51.990;5.926;2023-01-23T04:22:11;2.10;99.90
47336;DHT22;33068;51.990;5.926;2023-01-23T04:24:44;2.10;99.90
47336;DHT22;33068;51.990;5.926;2023-01-23T04:27:11;2.10;99.90
47336;DHT22;33068;51.990;5.926;2023-01-23T04:29:38;2.00;99.90
47336;DHT22;33068;51.990;5.926;2023-01-23T04:32:07;2.10;99.90
47336;DHT22;33068;51.990;5.926;2023-01-23T04:34:39;2.00;99.90
47336;DHT22;33068;51.990;5.926;2023-01-23T04:37:06;2.00;99.90
47336;DHT22;33068;51.990;5.926;2023-01-23T04:39:35;2.00;99.90
47336;DHT22;33068;51.990;5.926;2023-01-23T04:42:02;2.10;99.90
47336;DHT22;33068;51.990;5.926;2023-01-23T04:44:46;2.10;99.90
47336;DHT22;33068;51.990;5.926;2023-01-23T04:47:37;2.10;99.90
47336;DHT22;33068;51.990;5.926;2023-01-23T04:50:09;2.30;99.90
47336;DHT22;33068;51.990;5.926;2023-01-23T04:52:38;2.20;99.90
47336;DHT22;33068;51.990;5.926;2023-01-23T04:55:08;2.10;99.90
47336;DHT22;33068;51.990;5.926;2023-01-23T04:57:36;2.10;99.90
47336;DHT22;33068;51.990;5.926;2023-01-23T05:00:12;2.30;99.90
47336;DHT22;33068;51.990;5.926;2023-01-23T05:02:39;2.10;99.90
47336;DHT22;33068;51.990;5.926;2023-01-23T05:05:08;2.10;99.90
47336;DHT22;33068;51.990;5.926;2023-01-23T05:07:36;2.10;99.90
47336;DHT22;33068;51.990;5.926;2023-01-23T05:10:12;2.10;99.90
47336;DHT22;33068;51.990;5.926;2023-01-23T05:12:39;2.00;99.90
47336;DHT22;33068;51.990;5.926;2023-01-23T05:15:08;2.00;99.90
47336;DHT22;33068;51.990;5.926;2023-01-23T05:17:38;2.10;99.90
47336;DHT22;33068;51.990;5.926;2023-01-23T05:20:06;2.00;99.90
47336;DHT22;33068;51.990;5.926;2023-01-23T05:22:35;2.00;99.90
47336;DHT22;33068;51.990;5.926;2023-01-23T05:25:04;2.00;99.90
47336;DHT22;33068;51.990;5.926;2023-01-23T05:27:33;2.20;99.90
47336;DHT22;33068;51.990;5.926;2023-01-23T05:30:00;2.10;99.90
47336;DHT22;33068;51.990;5.926;2023-01-23T05:32:32;2.10;99.90
47336;DHT22;33068;51.990;5.926;2023-01-23T05:35:17;2.10;99.90
47336;DHT22;33068;51.990;5.926;2023-01-23T05:37:48;2.10;99.90
47336;DHT22;33068;51.990;5.926;2023-01-23T05:40:19;2.40;99.90
47336;DHT22;33068;51.990;5.926;2023-01-23T05:43:06;2.20;99.90
47336;DHT22;33068;51.990;5.926;2023-01-23T05:45:34;2.20;99.90
47336;DHT22;33068;51.990;5.926;2023-01-23T05:48:06;2.20;99.90
47336;DHT22;33068;51.990;5.926;2023-01-23T05:50:33;2.20;99.90
47336;DHT22;33068;51.990;5.926;2023-01-23T05:53:00;2.20;99.90
47336;DHT22;33068;51.990;5.926;2023-01-23T05:55:29;2.30;99.90
47336;DHT22;33068;51.990;5.926;2023-01-23T05:57:56;2.50;99.90
47336;DHT22;33068;51.990;5.926;2023-01-23T06:00:30;2.30;99.90
47336;DHT22;33068;51.990;5.926;2023-01-23T06:03:17;2.30;99.90
47336;DHT22;33068;51.990;5.926;2023-01-23T06:05:56;2.30;99.90
47336;DHT22;33068;51.990;5.926;2023-01-23T06:08:23;2.30;99.90
47336;DHT22;33068;51.990;5.926;2023-01-23T06:10:51;2.20;99.90
47336;DHT22;33068;51.990;5.926;2023-01-23T06:13:18;2.20;99.90
47336;DHT22;33068;51.990;5.926;2023-01-23T06:15:47;2.20;99.90
47336;DHT22;33068;51.990;5.926;2023-01-23T06:18:16;2.20;99.90
47336;DHT22;33068;51.990;5.926;2023-01-23T06:20:43;2.20;99.90
47336;DHT22;33068;51.990;5.926;2023-01-23T06:23:11;2.10;99.90
47336;DHT22;33068;51.990;5.926;2023-01-23T06:25:39;2.10;99.90
47336;DHT22;33068;51.990;5.926;2023-01-23T06:28:09;2.10;99.90
47336;DHT22;33068;51.990;5.926;2023-01-23T06:30:36;2.10;99.90
47336;DHT22;33068;51.990;5.926;2023-01-23T06:33:13;2.10;99.90
47336;DHT22;33068;51.990;5.926;2023-01-23T06:35:41;2.00;99.90
47336;DHT22;33068;51.990;5.926;2023-01-23T06:38:09;2.10;99.90
47336;DHT22;33068;51.990;5.926;2023-01-23T06:40:37;2.10;99.90
47336;DHT22;33068;51.990;5.926;2023-01-23T06:43:24;2.20;99.90
47336;DHT22;33068;51.990;5.926;2023-01-23T06:45:54;2.10;99.90
47336;DHT22;33068;51.990;5.926;2023-01-23T06:48:22;2.10;99.90
47336;DHT22;33068;51.990;5.926;2023-01-23T06:50:50;2.10;99.90
47336;DHT22;33068;51.990;5.926;2023-01-23T06:53:17;2.10;99.90
47336;DHT22;33068;51.990;5.926;2023-01-23T06:55:46;2.10;99.90
47336;DHT22;33068;51.990;5.926;2023-01-23T06:58:15;2.20;99.90
47336;DHT22;33068;51.990;5.926;2023-01-23T07:00:43;2.20;99.90
47336;DHT22;33068;51.990;5.926;2023-01-23T07:03:16;2.40;99.90
47336;DHT22;33068;51.990;5.926;2023-01-23T07:05:45;2.20;99.90
47336;DHT22;33068;51.990;5.926;2023-01-23T07:08:12;2.20;99.90
47336;DHT22;33068;51.990;5.926;2023-01-23T07:10:39;2.20;99.90
47336;DHT22;33068;51.990;5.926;2023-01-23T07:13:08;2.30;99.90
47336;DHT22;33068;51.990;5.926;2023-01-23T07:15:36;2.40;99.90
47336;DHT22;33068;51.990;5.926;2023-01-23T07:18:03;2.30;99.90
47336;DHT22;33068;51.990;5.926;2023-01-23T07:20:31;2.30;99.90
47336;DHT22;33068;51.990;5.926;2023-01-23T07:23:00;2.30;99.90
47336;DHT22;33068;51.990;5.926;2023-01-23T07:25:27;2.20;99.90
47336;DHT22;33068;51.990;5.926;2023-01-23T07:27:55;2.20;99.90
47336;DHT22;33068;51.990;5.926;2023-01-23T07:30:22;2.50;99.90
47336;DHT22;33068;51.990;5.926;2023-01-23T07:32:50;2.30;99.90
47336;DHT22;33068;51.990;5.926;2023-01-23T07:35:18;2.40;99.90
47336;DHT22;33068;51.990;5.926;2023-01-23T07:37:46;2.30;99.90
47336;DHT22;33068;51.990;5.926;2023-01-23T07:40:15;2.40;99.90
47336;DHT22;33068;51.990;5.926;2023-01-23T07:42:42;2.40;99.90
47336;DHT22;33068;51.990;5.926;2023-01-23T07:45:12;2.50;99.90
47336;DHT22;33068;51.990;5.926;2023-01-23T07:47:39;2.40;99.90
47336;DHT22;33068;51.990;5.926;2023-01-23T07:50:08;2.50;99.90
47336;DHT22;33068;51.990;5.926;2023-01-23T07:52:37;2.50;99.90
47336;DHT22;33068;51.990;5.926;2023-01-23T07:55:05;2.50;99.90
47336;DHT22;33068;51.990;5.926;2023-01-23T07:57:34;2.50;99.90
47336;DHT22;33068;51.990;5.926;2023-01-23T08:00:01;2.50;99.90
47336;DHT22;33068;51.990;5.926;2023-01-23T08:02:38;2.50;99.90
47336;DHT22;33068;51.990;5.926;2023-01-23T08:05:06;2.40;99.90
47336;DHT22;33068;51.990;5.926;2023-01-23T08:07:33;2.50;99.90
47336;DHT22;33068;51.990;5.926;2023-01-23T08:10:01;2.40;99.90
47336;DHT22;33068;51.990;5.926;2023-01-23T08:12:28;2.50;99.90
47336;DHT22;33068;51.990;5.926;2023-01-23T08:14:57;2.50;99.90
47336;DHT22;33068;51.990;5.926;2023-01-23T08:17:24;2.50;99.90
47336;DHT22;33068;51.990;5.926;2023-01-23T08:19:51;2.60;99.90
47336;DHT22;33068;51.990;5.926;2023-01-23T08:22:18;2.50;99.90
47336;DHT22;33068;51.990;5.926;2023-01-23T08:24:45;2.50;99.90
47336;DHT22;33068;51.990;5.926;2023-01-23T08:27:13;2.50;99.90
47336;DHT22;33068;51.990;5.926;2023-01-23T08:29:40;2.50;99.90
47336;DHT22;33068;51.990;5.926;2023-01-23T08:32:09;2.60;99.90
47336;DHT22;33068;51.990;5.926;2023-01-23T08:34:36;2.50;99.90
47336;DHT22;33068;51.990;5.926;2023-01-23T08:37:03;2.60;99.90
47336;DHT22;33068;51.990;5.926;2023-01-23T08:39:30;2.60;99.90
47336;DHT22;33068;51.990;5.926;2023-01-23T08:41:57;2.60;99.90
47336;DHT22;33068;51.990;5.926;2023-01-23T08:44:25;2.60;99.90
47336;DHT22;33068;51.990;5.926;2023-01-23T08:46:52;2.60;99.90
47336;DHT22;33068;51.990;5.926;2023-01-23T08:49:21;2.60;99.90
47336;DHT22;33068;51.990;5.926;2023-01-23T08:51:48;2.30;99.90
47336;DHT22;33068;51.990;5.926;2023-01-23T08:54:15;3.00;99.90
47336;DHT22;33068;51.990;5.926;2023-01-23T08:56:43;2.70;99.90
47336;DHT22;33068;51.990;5.926;2023-01-23T08:59:10;2.70;99.90
47336;DHT22;33068;51.990;5.926;2023-01-23T09:01:37;2.70;99.90
47336;DHT22;33068;51.990;5.926;2023-01-23T09:04:04;2.70;99.90
47336;DHT22;33068;51.990;5.926;2023-01-23T09:06:33;2.80;99.90
47336;DHT22;33068;51.990;5.926;2023-01-23T09:09:00;3.20;99.90
47336;DHT22;33068;51.990;5.926;2023-01-23T09:11:27;2.80;99.90
47336;DHT22;33068;51.990;5.926;2023-01-23T09:13:55;2.90;99.90
47336;DHT22;33068;51.990;5.926;2023-01-23T09:16:25;2.90;99.90
47336;DHT22;33068;51.990;5.926;2023-01-23T09:18:54;2.90;99.90
47336;DHT22;33068;51.990;5.926;2023-01-23T09:21:21;2.90;99.90
47336;DHT22;33068;51.990;5.926;2023-01-23T09:23:49;3.10;99.90
47336;DHT22;33068;51.990;5.926;2023-01-23T09:26:17;2.90;99.90
47336;DHT22;33068;51.990;5.926;2023-01-23T09:28:45;3.00;99.90
47336;DHT22;33068;51.990;5.926;2023-01-23T09:31:13;3.00;99.90
47336;DHT22;33068;51.990;5.926;2023-01-23T09:33:40;3.10;99.90
47336;DHT22;33068;51.990;5.926;2023-01-23T09:36:08;3.10;99.90
47336;DHT22;33068;51.990;5.926;2023-01-23T09:38:36;3.00;99.90
47336;DHT22;33068;51.990;5.926;2023-01-23T09:41:12;3.30;99.90
47336;DHT22;33068;51.990;5.926;2023-01-23T09:43:44;3.20;99.90
47336;DHT22;33068;51.990;5.926;2023-01-23T09:46:19;3.20;99.90
47336;DHT22;33068;51.990;5.926;2023-01-23T09:48:50;3.30;99.90
47336;DHT22;33068;51.990;5.926;2023-01-23T09:51:23;3.30;99.90
47336;DHT22;33068;51.990;5.926;2023-01-23T09:53:54;3.30;99.90
47336;DHT22;33068;51.990;5.926;2023-01-23T09:56:30;3.30;99.90
47336;DHT22;33068;51.990;5.926;2023-01-23T09:59:01;3.30;99.90
47336;DHT22;33068;51.990;5.926;2023-01-23T10:01:30;3.30;99.90
47336;DHT22;33068;51.990;5.926;2023-01-23T10:03:58;3.30;99.90
47336;DHT22;33068;51.990;5.926;2023-01-23T10:06:28;3.50;99.90
47336;DHT22;33068;51.990;5.926;2023-01-23T10:09:18;3.40;99.90
47336;DHT22;33068;51.990;5.926;2023-01-23T10:11:55;3.40;99.90
47336;DHT22;33068;51.990;5.926;2023-01-23T10:14:50;3.50;99.90
47336;DHT22;33068;51.990;5.926;2023-01-23T10:17:25;3.50;99.90
47336;DHT22;33068;51.990;5.926;2023-01-23T10:20:19;3.50;99.90
47336;DHT22;33068;51.990;5.926;2023-01-23T10:22:55;3.50;99.90
47336;DHT22;33068;51.990;5.926;2023-01-23T10:25:25;3.50;99.90
47336;DHT22;33068;51.990;5.926;2023-01-23T10:27:59;3.50;99.90
47336;DHT22;33068;51.990;5.926;2023-01-23T10:30:30;3.60;99.90
47336;DHT22;33068;51.990;5.926;2023-01-23T10:33:01;3.60;99.90
47336;DHT22;33068;51.990;5.926;2023-01-23T10:35:39;3.60;99.90
47336;DHT22;33068;51.990;5.926;2023-01-23T10:38:22;3.60;99.90
47336;DHT22;33068;51.990;5.926;2023-01-23T10:40:51;3.70;99.90
47336;DHT22;33068;51.990;5.926;2023-01-23T10:43:37;3.70;99.90
47336;DHT22;33068;51.990;5.926;2023-01-23T10:46:10;3.80;99.90
47336;DHT22;33068;51.990;5.926;2023-01-23T10:48:44;3.70;99.90
47336;DHT22;33068;51.990;5.926;2023-01-23T10:51:33;3.80;99.90
47336;DHT22;33068;51.990;5.926;2023-01-23T10:54:13;3.80;99.90
47336;DHT22;33068;51.990;5.926;2023-01-23T10:56:48;3.90;99.90
47336;DHT22;33068;51.990;5.926;2023-01-23T10:59:21;4.00;99.90
47336;DHT22;33068;51.990;5.926;2023-01-23T11:01:58;3.80;99.90
47336;DHT22;33068;51.990;5.926;2023-01-23T11:04:26;3.90;99.90
47336;DHT22;33068;51.990;5.926;2023-01-23T11:07:00;3.90;99.90
47336;DHT22;33068;51.990;5.926;2023-01-23T11:09:28;3.90;99.90
47336;DHT22;33068;51.990;5.926;2023-01-23T11:12:00;4.00;99.90
47336;DHT22;33068;51.990;5.926;2023-01-23T11:14:29;4.00;99.90
47336;DHT22;33068;51.990;5.926;2023-01-23T11:17:02;4.00;99.90
47336;DHT22;33068;51.990;5.926;2023-01-23T11:19:31;4.00;99.90
47336;DHT22;33068;51.990;5.926;2023-01-23T11:22:00;4.00;99.90
47336;DHT22;33068;51.990;5.926;2023-01-23T11:24:33;4.00;99.90
47336;DHT22;33068;51.990;5.926;2023-01-23T11:27:03;4.00;99.90
47336;DHT22;33068;51.990;5.926;2023-01-23T11:29:46;4.00;99.90
47336;DHT22;33068;51.990;5.926;2023-01-23T11:32:16;4.20;99.90
47336;DHT22;33068;51.990;5.926;2023-01-23T11:34:46;4.10;99.90
47336;DHT22;33068;51.990;5.926;2023-01-23T11:37:19;4.10;99.90
47336;DHT22;33068;51.990;5.926;2023-01-23T11:39:51;4.10;99.90
47336;DHT22;33068;51.990;5.926;2023-01-23T11:42:20;4.10;99.90
47336;DHT22;33068;51.990;5.926;2023-01-23T11:44:51;4.20;99.90
47336;DHT22;33068;51.990;5.926;2023-01-23T11:50:33;4.30;99.90
47336;DHT22;33068;51.990;5.926;2023-01-23T11:53:06;4.30;99.90
47336;DHT22;33068;51.990;5.926;2023-01-23T11:58:39;4.20;99.90
47336;DHT22;33068;51.990;5.926;2023-01-23T12:01:20;4.10;99.90
47336;DHT22;33068;51.990;5.926;2023-01-23T12:04:20;4.30;99.90
47336;DHT22;33068;51.990;5.926;2023-01-23T12:07:00;4.10;99.90
47336;DHT22;33068;51.990;5.926;2023-01-23T12:09:39;4.20;99.90
47336;DHT22;33068;51.990;5.926;2023-01-23T12:12:23;4.20;99.90
47336;DHT22;33068;51.990;5.926;2023-01-23T12:14:59;4.20;99.90
47336;DHT22;33068;51.990;5.926;2023-01-23T12:17:36;4.20;99.90
47336;DHT22;33068;51.990;5.926;2023-01-23T12:20:22;4.30;99.90
47336;DHT22;33068;51.990;5.926;2023-01-23T12:23:15;4.30;99.90
47336;DHT22;33068;51.990;5.926;2023-01-23T12:25:50;4.30;99.90
47336;DHT22;33068;51.990;5.926;2023-01-23T12:28:28;4.30;99.90
47336;DHT22;33068;51.990;5.926;2023-01-23T12:31:08;4.40;99.90
47336;DHT22;33068;51.990;5.926;2023-01-23T12:33:58;4.40;99.90
47336;DHT22;33068;51.990;5.926;2023-01-23T12:36:50;4.40;99.90
47336;DHT22;33068;51.990;5.926;2023-01-23T12:39:33;4.50;99.90
47336;DHT22;33068;51.990;5.926;2023-01-23T12:42:09;4.50;99.90
47336;DHT22;33068;51.990;5.926;2023-01-23T12:44:45;4.50;99.90
47336;DHT22;33068;51.990;5.926;2023-01-23T12:47:17;4.30;99.90
47336;DHT22;33068;51.990;5.926;2023-01-23T12:49:51;4.10;99.90
47336;DHT22;33068;51.990;5.926;2023-01-23T12:52:22;4.40;99.90
47336;DHT22;33068;51.990;5.926;2023-01-23T12:54:58;4.60;99.90
47336;DHT22;33068;51.990;5.926;2023-01-23T12:57:29;4.60;99.90
47336;DHT22;33068;51.990;5.926;2023-01-23T13:00:15;4.60;99.90
47336;DHT22;33068;51.990;5.926;2023-01-23T13:02:54;4.70;99.90
47336;DHT22;33068;51.990;5.926;2023-01-23T13:05:29;4.80;99.90
47336;DHT22;33068;51.990;5.926;2023-01-23T13:08:00;4.90;99.90
47336;DHT22;33068;51.990;5.926;2023-01-23T13:10:48;4.90;99.90
47336;DHT22;33068;51.990;5.926;2023-01-23T13:13:36;4.90;99.90
47336;DHT22;33068;51.990;5.926;2023-01-23T13:16:09;4.80;99.90
47336;DHT22;33068;51.990;5.926;2023-01-23T13:18:37;4.80;99.90
47336;DHT22;33068;51.990;5.926;2023-01-23T13:21:24;4.70;99.90
47336;DHT22;33068;51.990;5.926;2023-01-23T13:24:31;4.70;99.90
47336;DHT22;33068;51.990;5.926;2023-01-23T13:27:40;4.60;99.90
47336;DHT22;33068;51.990;5.926;2023-01-23T13:30:38;4.60;99.90
47336;DHT22;33068;51.990;5.926;2023-01-23T13:36:34;4.50;99.90
47336;DHT22;33068;51.990;5.926;2023-01-23T13:39:26;4.40;99.90
47336;DHT22;33068;51.990;5.926;2023-01-23T13:42:32;4.40;99.90
47336;DHT22;33068;51.990;5.926;2023-01-23T13:45:32;4.30;99.90
47336;DHT22;33068;51.990;5.926;2023-01-23T13:48:43;4.20;99.90
47336;DHT22;33068;51.990;5.926;2023-01-23T13:51:32;4.20;99.90
47336;DHT22;33068;51.990;5.926;2023-01-23T13:54:01;3.90;99.90
47336;DHT22;33068;51.990;5.926;2023-01-23T13:56:46;4.10;99.90
47336;DHT22;33068;51.990;5.926;2023-01-23T13:59:24;4.10;99.90
47336;DHT22;33068;51.990;5.926;2023-01-23T14:01:57;4.10;99.90
47336;DHT22;33068;51.990;5.926;2023-01-23T14:05:02;4.10;99.90
47336;DHT22;33068;51.990;5.926;2023-01-23T14:07:43;4.30;99.90
47336;DHT22;33068;51.990;5.926;2023-01-23T14:10:24;4.10;99.90
47336;DHT22;33068;51.990;5.926;2023-01-23T14:13:01;4.10;99.90
47336;DHT22;33068;51.990;5.926;2023-01-23T14:15:30;4.10;99.90
47336;DHT22;33068;51.990;5.926;2023-01-23T14:18:18;4.30;99.90
47336;DHT22;33068;51.990;5.926;2023-01-23T14:20:46;4.30;99.90
47336;DHT22;33068;51.990;5.926;2023-01-23T14:23:28;4.30;99.90
47336;DHT22;33068;51.990;5.926;2023-01-23T14:25:56;4.30;99.90
47336;DHT22;33068;51.990;5.926;2023-01-23T14:28:23;4.40;99.90
47336;DHT22;33068;51.990;5.926;2023-01-23T14:30:57;4.40;99.90
47336;DHT22;33068;51.990;5.926;2023-01-23T14:33:25;4.60;99.90
47336;DHT22;33068;51.990;5.926;2023-01-23T14:35:53;4.70;99.90
47336;DHT22;33068;51.990;5.926;2023-01-23T14:38:31;4.60;99.90
47336;DHT22;33068;51.990;5.926;2023-01-23T14:41:04;4.60;99.90
47336;DHT22;33068;51.990;5.926;2023-01-23T14:43:32;4.60;99.90
47336;DHT22;33068;51.990;5.926;2023-01-23T14:46:03;4.50;99.90
47336;DHT22;33068;51.990;5.926;2023-01-23T14:48:34;4.50;99.90
47336;DHT22;33068;51.990;5.926;2023-01-23T14:51:09;4.40;99.90
47336;DHT22;33068;51.990;5.926;2023-01-23T14:53:44;4.40;99.90
47336;DHT22;33068;51.990;5.926;2023-01-23T14:56:16;4.30;99.90
47336;DHT22;33068;51.990;5.926;2023-01-23T14:58:43;4.20;99.90
47336;DHT22;33068;51.990;5.926;2023-01-23T15:01:12;4.20;99.90
47336;DHT22;33068;51.990;5.926;2023-01-23T15:03:41;4.10;99.90
47336;DHT22;33068;51.990;5.926;2023-01-23T15:06:20;4.00;99.90
47336;DHT22;33068;51.990;5.926;2023-01-23T15:08:49;4.00;99.90
47336;DHT22;33068;51.990;5.926;2023-01-23T15:11:24;4.00;99.90
47336;DHT22;33068;51.990;5.926;2023-01-23T15:13:55;4.00;99.90
47336;DHT22;33068;51.990;5.926;2023-01-23T15:16:29;4.00;99.90
47336;DHT22;33068;51.990;5.926;2023-01-23T15:19:04;4.00;99.90
47336;DHT22;33068;51.990;5.926;2023-01-23T15:21:35;4.00;99.90
47336;DHT22;33068;51.990;5.926;2023-01-23T15:24:25;4.00;99.90
47336;DHT22;33068;51.990;5.926;2023-01-23T15:27:02;4.00;99.90
47336;DHT22;33068;51.990;5.926;2023-01-23T15:29:30;4.00;99.90
47336;DHT22;33068;51.990;5.926;2023-01-23T15:31:58;4.00;99.90
47336;DHT22;33068;51.990;5.926;2023-01-23T15:34:28;4.00;99.90
47336;DHT22;33068;51.990;5.926;2023-01-23T15:37:03;4.00;99.90
47336;DHT22;33068;51.990;5.926;2023-01-23T15:39:38;3.90;99.90
47336;DHT22;33068;51.990;5.926;2023-01-23T15:42:23;3.90;99.90
47336;DHT22;33068;51.990;5.926;2023-01-23T15:44:51;3.90;99.90
47336;DHT22;33068;51.990;5.926;2023-01-23T15:47:19;3.90;99.90
47336;DHT22;33068;51.990;5.926;2023-01-23T15:49:46;3.90;99.90
47336;DHT22;33068;51.990;5.926;2023-01-23T15:52:20;4.00;99.90
47336;DHT22;33068;51.990;5.926;2023-01-23T15:54:52;3.60;99.90
47336;DHT22;33068;51.990;5.926;2023-01-23T15:57:19;3.90;99.90
47336;DHT22;33068;51.990;5.926;2023-01-23T15:59:47;3.90;99.90
47336;DHT22;33068;51.990;5.926;2023-01-23T16:02:15;3.90;99.90
47336;DHT22;33068;51.990;5.926;2023-01-23T16:04:46;3.90;99.90
47336;DHT22;33068;51.990;5.926;2023-01-23T16:07:24;3.90;99.90
47336;DHT22;33068;51.990;5.926;2023-01-23T16:09:55;3.90;99.90
47336;DHT22;33068;51.990;5.926;2023-01-23T16:12:26;3.80;99.90
47336;DHT22;33068;51.990;5.926;2023-01-23T16:14:54;3.80;99.90
47336;DHT22;33068;51.990;5.926;2023-01-23T16:17:22;3.90;99.90
47336;DHT22;33068;51.990;5.926;2023-01-23T16:19:49;3.90;99.90
47336;DHT22;33068;51.990;5.926;2023-01-23T16:22:23;3.80;99.90
47336;DHT22;33068;51.990;5.926;2023-01-23T16:24:53;3.80;99.90
47336;DHT22;33068;51.990;5.926;2023-01-23T16:27:26;3.80;99.90
47336;DHT22;33068;51.990;5.926;2023-01-23T16:29:54;4.00;99.90
47336;DHT22;33068;51.990;5.926;2023-01-23T16:32:22;3.80;99.90
47336;DHT22;33068;51.990;5.926;2023-01-23T16:34:49;3.80;99.90
47336;DHT22;33068;51.990;5.926;2023-01-23T16:37:17;3.80;99.90
47336;DHT22;33068;51.990;5.926;2023-01-23T16:39:45;3.80;99.90
47336;DHT22;33068;51.990;5.926;2023-01-23T16:42:18;3.80;99.90
47336;DHT22;33068;51.990;5.926;2023-01-23T16:44:45;3.80;99.90
47336;DHT22;33068;51.990;5.926;2023-01-23T16:47:12;3.80;99.90
47336;DHT22;33068;51.990;5.926;2023-01-23T16:49:40;3.80;99.90
47336;DHT22;33068;51.990;5.926;2023-01-23T16:52:11;3.80;99.90
47336;DHT22;33068;51.990;5.926;2023-01-23T16:54:40;3.80;99.90
47336;DHT22;33068;51.990;5.926;2023-01-23T16:57:10;3.80;99.90
47336;DHT22;33068;51.990;5.926;2023-01-23T16:59:42;3.80;99.90
47336;DHT22;33068;51.990;5.926;2023-01-23T17:02:16;3.80;99.90
47336;DHT22;33068;51.990;5.926;2023-01-23T17:04:45;3.80;99.90
47336;DHT22;33068;51.990;5.926;2023-01-23T17:07:13;3.80;99.90